createdAt,value
2023-05-10T00:00:29.618Z,96.49
2023-05-10T00:02:56.351Z,96.63
2023-05-10T00:05:24.694Z,96.89
2023-05-10T00:07:51.347Z,97.63
2023-05-10T00:10:18.246Z,97.42
2023-05-10T00:12:45.029Z,97.61
2023-05-10T00:15:11.761Z,97.33
2023-05-10T00:17:38.464Z,97.61
2023-05-10T00:20:06.048Z,96.97
2023-05-10T00:22:34.181Z,97.27
2023-05-10T00:25:00.955Z,96.55
2023-05-10T00:27:27.623Z,95.66
2023-05-10T00:29:54.327Z,96.48
2023-05-10T00:32:21.892Z,95.88
2023-05-10T00:34:49.345Z,96.88
2023-05-10T00:37:16.100Z,97.13
2023-05-10T00:39:44.078Z,97.65
2023-05-10T00:42:11.673Z,97.18
2023-05-10T00:44:38.376Z,96.26
2023-05-10T00:47:06.453Z,97.74
2023-05-10T00:49:33.091Z,97.71
2023-05-10T00:51:59.838Z,97.84
2023-05-10T00:54:26.650Z,96.84
2023-05-10T00:56:54.671Z,96.82
2023-05-10T00:59:21.760Z,96.96
2023-05-10T01:01:48.672Z,97.09
2023-05-10T01:04:15.954Z,96.16
2023-05-10T01:06:42.796Z,95.97
2023-05-10T01:09:09.415Z,97.41
2023-05-10T01:11:36.490Z,97.36
2023-05-10T01:14:04.555Z,97.54
2023-05-10T01:16:33.428Z,97.91
2023-05-10T01:19:00.280Z,97.66
2023-05-10T01:21:33.148Z,97.05
2023-05-10T01:24:23.825Z,97.06
2023-05-10T01:27:08.493Z,97.89
2023-05-10T01:30:14.178Z,98.33
2023-05-10T01:32:44.666Z,97.51
2023-05-10T01:35:13.687Z,97.61
2023-05-10T01:37:43.605Z,97.71
2023-05-10T01:40:14.521Z,97.77
2023-05-10T01:42:45.673Z,98.12
2023-05-10T01:45:15.817Z,96.67
2023-05-10T01:47:44.763Z,96.71
2023-05-10T01:50:18.155Z,94.51
2023-05-10T01:52:49.170Z,96.52
2023-05-10T01:55:17.548Z,93.12
2023-05-10T01:57:45.775Z,93.43
2023-05-10T02:00:14.587Z,93.28
2023-05-10T02:02:43.359Z,93.38
2023-05-10T02:05:13.401Z,93.54
2023-05-10T02:07:40.338Z,91.45
2023-05-10T02:10:08.867Z,92.40
2023-05-10T02:12:37.019Z,92.12
2023-05-10T02:15:05.505Z,90.89
2023-05-10T02:17:32.932Z,92.67
2023-05-10T02:19:59.905Z,92.52
2023-05-10T02:22:28.540Z,92.27
2023-05-10T02:24:56.058Z,92.33
2023-05-10T02:27:24.066Z,92.16
2023-05-10T02:29:51.269Z,92.38
2023-05-10T02:32:19.110Z,91.50
2023-05-10T02:34:46.622Z,92.16
2023-05-10T02:37:15.688Z,92.62
2023-05-10T02:39:46.444Z,91.56
2023-05-10T02:42:14.726Z,93.88
2023-05-10T02:44:42.484Z,94.19
2023-05-10T02:47:09.311Z,94.13
2023-05-10T02:49:36.200Z,93.19
2023-05-10T02:52:06.037Z,94.93
2023-05-10T02:54:34.144Z,95.20
2023-05-10T02:57:04.869Z,94.61
2023-05-10T02:59:32.068Z,93.12
2023-05-10T03:01:59.160Z,94.20
2023-05-10T03:04:25.883Z,94.28
2023-05-10T03:06:55.144Z,95.22
2023-05-10T03:09:22.537Z,92.32
2023-05-10T03:11:56.469Z,93.99
2023-05-10T03:14:32.778Z,95.05
2023-05-10T03:17:05.319Z,94.51
2023-05-10T03:19:37.024Z,94.84
2023-05-10T03:22:06.019Z,96.51
2023-05-10T03:24:37.649Z,96.46
2023-05-10T03:27:05.397Z,94.40
2023-05-10T03:29:34.091Z,94.12
2023-05-10T03:32:01.279Z,94.07
2023-05-10T03:34:31.430Z,95.38
2023-05-10T03:36:58.569Z,95.38
2023-05-10T03:39:28.145Z,96.63
2023-05-10T03:41:58.008Z,97.87
2023-05-10T03:44:24.775Z,96.73
2023-05-10T03:46:53.054Z,96.37
2023-05-10T03:49:19.842Z,95.36
2023-05-10T03:51:46.612Z,97.21
2023-05-10T03:54:13.312Z,97.12
2023-05-10T03:56:39.899Z,97.16
2023-05-10T03:59:08.489Z,98.39
2023-05-10T04:01:35.638Z,97.76
2023-05-10T04:04:04.503Z,97.27
2023-05-10T04:06:33.060Z,97.93
2023-05-10T04:09:05.119Z,97.30
2023-05-10T04:11:31.805Z,96.09
2023-05-10T04:13:58.509Z,95.53
2023-05-10T04:16:25.211Z,94.40
2023-05-10T04:18:51.928Z,94.79
2023-05-10T04:21:19.975Z,94.87
2023-05-10T04:23:46.661Z,93.69
2023-05-10T04:26:13.581Z,95.70
2023-05-10T04:28:40.365Z,93.26
2023-05-10T04:31:08.328Z,94.56
2023-05-10T04:33:35.519Z,95.88
2023-05-10T04:36:02.366Z,95.29
2023-05-10T04:38:30.385Z,95.48
2023-05-10T04:41:04.610Z,95.08
2023-05-10T04:43:31.615Z,94.55
2023-05-10T04:45:58.388Z,94.98
2023-05-10T04:48:25.056Z,94.90
2023-05-10T04:50:51.655Z,94.25
2023-05-10T04:53:18.294Z,93.94
2023-05-10T04:55:47.075Z,93.26
2023-05-10T04:58:13.686Z,93.20
2023-05-10T05:00:40.422Z,93.38
2023-05-10T05:03:07.183Z,95.03
2023-05-10T05:05:33.980Z,95.35
2023-05-10T05:08:01.027Z,94.65
2023-05-10T05:10:27.654Z,94.17
2023-05-10T05:12:55.772Z,92.71
2023-05-10T05:15:22.411Z,91.88
2023-05-10T05:17:49.083Z,94.45
2023-05-10T05:20:15.915Z,92.78
2023-05-10T05:22:42.772Z,93.03
2023-05-10T05:25:09.617Z,91.52
2023-05-10T05:27:36.340Z,93.73
2023-05-10T05:30:05.240Z,91.01
2023-05-10T05:32:31.874Z,94.86
2023-05-10T05:34:58.524Z,93.94
2023-05-10T05:37:25.522Z,91.98
2023-05-10T05:39:52.225Z,93.07
2023-05-10T05:42:19.902Z,95.13
2023-05-10T05:44:46.695Z,94.53
2023-05-10T05:47:14.767Z,94.39
2023-05-10T05:49:41.652Z,93.98
2023-05-10T05:52:08.259Z,95.48
2023-05-10T05:54:34.885Z,94.50
2023-05-10T05:57:01.821Z,94.19
2023-05-10T05:59:28.478Z,94.83
2023-05-10T06:01:55.269Z,94.66
2023-05-10T06:04:23.449Z,96.65
2023-05-10T06:06:50.205Z,95.18
2023-05-10T06:09:17.079Z,95.58
2023-05-10T06:11:43.993Z,95.62
2023-05-10T06:14:11.356Z,95.86
2023-05-10T06:16:38.213Z,95.28
2023-05-10T06:19:04.930Z,92.63
2023-05-10T06:21:32.922Z,93.79
2023-05-10T06:23:59.693Z,93.31
2023-05-10T06:26:26.548Z,93.97
2023-05-10T06:28:53.190Z,92.57
2023-05-10T06:31:19.858Z,92.08
2023-05-10T06:33:46.525Z,92.68
2023-05-10T06:36:14.239Z,90.95
2023-05-10T06:38:42.395Z,90.54
2023-05-10T06:41:09.261Z,91.44
2023-05-10T06:43:36.023Z,90.07
2023-05-10T06:46:02.720Z,88.63
2023-05-10T06:48:29.497Z,90.13
2023-05-10T06:50:56.258Z,90.60
2023-05-10T06:53:22.967Z,89.43
2023-05-10T06:55:51.919Z,90.76
2023-05-10T06:58:18.700Z,90.08
2023-05-10T07:00:46.445Z,87.73
2023-05-10T07:03:13.392Z,88.52
2023-05-10T07:05:40.188Z,89.72
2023-05-10T07:08:06.945Z,89.24
2023-05-10T07:10:33.961Z,88.23
2023-05-10T07:13:02.529Z,88.43
2023-05-10T07:15:29.629Z,90.26
2023-05-10T07:17:56.583Z,89.94
2023-05-10T07:20:23.423Z,87.86
2023-05-10T07:22:50.151Z,84.68
2023-05-10T07:25:17.088Z,87.94
2023-05-10T07:27:43.896Z,80.96
2023-05-10T07:30:12.858Z,81.84
2023-05-10T07:32:40.533Z,82.48
2023-05-10T07:35:07.893Z,77.76
2023-05-10T07:37:34.717Z,84.91
2023-05-10T07:40:01.526Z,80.66
2023-05-10T07:42:28.275Z,83.26
2023-05-10T07:44:54.912Z,83.26
2023-05-10T07:47:23.136Z,82.58
2023-05-10T07:49:49.957Z,77.36
2023-05-10T07:52:16.699Z,78.83
2023-05-10T07:54:43.414Z,80.13
2023-05-10T07:57:10.290Z,77.77
2023-05-10T07:59:37.646Z,78.52
2023-05-10T08:02:04.458Z,71.51
2023-05-10T08:04:32.635Z,62.99
2023-05-10T08:06:59.305Z,66.79
2023-05-10T08:09:25.991Z,64.31
2023-05-10T08:11:52.788Z,70.15
2023-05-10T08:14:19.571Z,66.54
2023-05-10T08:16:46.371Z,64.37
2023-05-10T08:19:13.199Z,71.42
2023-05-10T08:21:43.155Z,68.54
2023-05-10T08:24:09.914Z,65.34
2023-05-10T08:26:36.755Z,67.27
2023-05-10T08:29:03.498Z,67.54
2023-05-10T08:31:30.329Z,65.49
2023-05-10T08:33:57.030Z,64.04
2023-05-10T08:36:25.300Z,66.67
2023-05-10T08:38:54.263Z,64.62
2023-05-10T08:41:22.086Z,63.70
2023-05-10T08:43:48.931Z,63.38
2023-05-10T08:46:17.748Z,63.52
2023-05-10T08:48:45.359Z,64.97
2023-05-10T08:51:14.117Z,61.10
2023-05-10T08:53:40.976Z,63.26
2023-05-10T08:56:09.421Z,66.27
2023-05-10T08:58:36.440Z,67.53
2023-05-10T09:01:03.695Z,66.44
2023-05-10T09:03:30.809Z,67.30
2023-05-10T09:05:57.776Z,65.50
2023-05-10T09:08:26.871Z,62.56
2023-05-10T09:10:53.669Z,65.27
2023-05-10T09:13:22.197Z,63.92
2023-05-10T09:15:49.291Z,65.28
2023-05-10T09:18:16.320Z,67.29
2023-05-10T09:20:43.265Z,60.77
2023-05-10T09:23:10.152Z,62.52
2023-05-10T09:25:38.181Z,62.38
2023-05-10T09:28:07.139Z,63.53
2023-05-10T09:30:35.494Z,63.98
2023-05-10T09:33:02.780Z,65.03
2023-05-10T09:35:31.229Z,59.68
2023-05-10T09:37:58.759Z,61.97
2023-05-10T09:40:26.347Z,58.76
2023-05-10T09:42:53.642Z,60.67
2023-05-10T09:45:20.549Z,58.67
2023-05-10T09:47:49.096Z,58.89
2023-05-10T09:50:16.052Z,60.25
2023-05-10T09:52:50.394Z,58.39
2023-05-10T09:55:17.539Z,58.62
2023-05-10T09:57:44.416Z,61.92
2023-05-10T10:00:11.657Z,62.74
2023-05-10T10:02:41.538Z,61.37
2023-05-10T10:05:10.221Z,60.85
2023-05-10T10:07:37.424Z,61.00
2023-05-10T10:10:05.764Z,57.78
2023-05-10T10:12:32.682Z,57.58
2023-05-10T10:15:00.671Z,57.26
2023-05-10T10:17:28.674Z,57.75
2023-05-10T10:19:56.614Z,59.02
2023-05-10T10:22:24.654Z,60.55
2023-05-10T10:24:51.509Z,61.56
2023-05-10T10:27:22.858Z,61.82
2023-05-10T10:29:53.507Z,63.42
2023-05-10T10:32:23.198Z,62.59
2023-05-10T10:34:50.290Z,60.81
2023-05-10T10:37:17.270Z,61.37
2023-05-10T10:39:45.425Z,62.07
2023-05-10T10:42:12.164Z,64.92
2023-05-10T10:44:39.393Z,65.88
2023-05-10T10:47:09.277Z,64.93
2023-05-10T10:49:43.428Z,60.91
2023-05-10T10:52:21.370Z,62.24
2023-05-10T10:54:53.480Z,61.23
2023-05-10T10:57:22.928Z,60.22
2023-05-10T10:59:49.645Z,60.24
2023-05-10T11:02:34.439Z,61.66
2023-05-10T11:05:01.956Z,60.88
2023-05-10T11:07:28.711Z,62.17
2023-05-10T11:09:57.144Z,62.20
2023-05-10T11:12:23.837Z,60.08
2023-05-10T11:14:50.993Z,58.82
2023-05-10T11:17:24.987Z,63.21
2023-05-10T11:20:07.530Z,57.53
2023-05-10T11:22:49.762Z,57.49
2023-05-10T11:25:17.819Z,59.83
2023-05-10T11:27:44.645Z,58.74
2023-05-10T11:30:12.448Z,60.96
2023-05-10T11:32:39.404Z,70.10
2023-05-10T11:35:09.263Z,76.06
2023-05-10T11:37:36.009Z,79.53
2023-05-10T11:40:03.376Z,82.60
2023-05-10T11:42:31.538Z,78.54
2023-05-10T11:44:58.111Z,73.03
2023-05-10T11:47:24.793Z,72.45
2023-05-10T11:49:52.785Z,69.94
2023-05-10T11:52:19.880Z,69.22
2023-05-10T11:54:51.624Z,70.51
2023-05-10T11:57:19.251Z,66.58
2023-05-10T11:59:47.265Z,66.71
2023-05-10T12:02:14.326Z,66.89
2023-05-10T12:04:41.208Z,67.26
2023-05-10T12:07:08.791Z,67.05
2023-05-10T12:09:43.819Z,67.51
2023-05-10T12:12:11.253Z,68.13
2023-05-10T12:14:38.219Z,67.86
2023-05-10T12:17:06.427Z,64.91
2023-05-10T12:19:38.131Z,65.16
2023-05-10T12:22:05.750Z,64.62
2023-05-10T12:24:34.690Z,61.30
2023-05-10T12:27:05.277Z,63.41
2023-05-10T12:29:31.903Z,61.95
2023-05-10T12:31:59.281Z,60.77
2023-05-10T12:34:33.992Z,62.67
2023-05-10T12:37:01.275Z,59.30
2023-05-10T12:39:38.607Z,62.92
2023-05-10T12:42:05.453Z,59.86
2023-05-10T12:44:32.029Z,59.26
2023-05-10T12:46:58.627Z,54.53
2023-05-10T12:49:25.292Z,54.14
2023-05-10T12:51:53.252Z,57.66
2023-05-10T12:54:19.818Z,56.53
2023-05-10T12:56:46.499Z,55.84
2023-05-10T12:59:13.201Z,54.32
2023-05-10T13:01:40.592Z,53.78
2023-05-10T13:04:07.379Z,51.92
2023-05-10T13:06:34.053Z,54.36
2023-05-10T13:09:02.077Z,53.70
2023-05-10T13:11:28.750Z,52.04
2023-05-10T13:13:55.391Z,53.45
2023-05-10T13:16:22.176Z,49.76
2023-05-10T13:18:48.878Z,51.17
2023-05-10T13:21:15.737Z,51.44
2023-05-10T13:23:42.417Z,48.18
2023-05-10T13:26:10.598Z,51.23
2023-05-10T13:28:37.205Z,50.83
2023-05-10T13:31:03.985Z,51.11
2023-05-10T13:33:30.619Z,50.70
2023-05-10T13:35:57.238Z,52.07
2023-05-10T13:38:23.886Z,52.15
2023-05-10T13:40:53.527Z,52.93
2023-05-10T13:43:21.780Z,52.52
2023-05-10T13:45:48.420Z,51.26
2023-05-10T13:48:15.213Z,52.22
2023-05-10T13:50:41.972Z,52.10
2023-05-10T13:53:08.669Z,51.55
2023-05-10T13:55:35.241Z,49.77
2023-05-10T13:58:02.376Z,51.15
2023-05-10T14:00:30.397Z,52.43
2023-05-10T14:02:57.153Z,52.01
2023-05-10T14:05:26.193Z,54.19
2023-05-10T14:07:53.470Z,55.56
2023-05-10T14:10:20.210Z,55.35
2023-05-10T14:12:46.990Z,53.13
2023-05-10T14:15:13.580Z,52.42
2023-05-10T14:17:41.811Z,50.85
2023-05-10T14:20:08.667Z,50.18
2023-05-10T14:22:35.587Z,50.73
2023-05-10T14:25:02.354Z,50.40
2023-05-10T14:27:29.275Z,51.07
2023-05-10T14:29:56.053Z,48.62
2023-05-10T14:32:22.854Z,47.59
2023-05-10T14:34:51.119Z,50.00
2023-05-10T14:37:17.687Z,51.44
2023-05-10T14:39:44.328Z,52.93
2023-05-10T14:42:11.071Z,53.75
2023-05-10T14:44:38.292Z,52.73
2023-05-10T14:47:05.071Z,55.03
2023-05-10T14:49:31.725Z,53.84
2023-05-10T14:51:59.759Z,55.12
2023-05-10T14:54:26.896Z,51.22
2023-05-10T14:56:53.644Z,49.42
2023-05-10T14:59:21.346Z,50.32
2023-05-10T15:01:48.512Z,49.83
2023-05-10T15:04:17.387Z,49.06
2023-05-10T15:06:44.648Z,49.12
2023-05-10T15:09:12.593Z,47.01
2023-05-10T15:11:39.353Z,49.22
2023-05-10T15:14:06.109Z,48.59
2023-05-10T15:16:35.715Z,51.47
2023-05-10T15:19:03.113Z,52.38
2023-05-10T15:21:30.263Z,52.65
2023-05-10T15:23:57.005Z,52.02
2023-05-10T15:26:27.182Z,52.93
2023-05-10T15:28:53.891Z,52.88
2023-05-10T15:31:20.626Z,52.66
2023-05-10T15:33:47.384Z,52.08
2023-05-10T15:36:13.999Z,50.86
2023-05-10T15:38:40.893Z,51.07
2023-05-10T15:41:07.636Z,49.32
2023-05-10T15:43:35.780Z,49.47
2023-05-10T15:46:02.699Z,50.59
2023-05-10T15:48:32.353Z,52.62
2023-05-10T15:50:59.150Z,51.39
2023-05-10T15:53:25.916Z,52.37
2023-05-10T15:55:52.689Z,51.44
2023-05-10T15:58:19.395Z,52.13
2023-05-10T16:00:48.472Z,51.72
2023-05-10T16:03:15.160Z,54.06
2023-05-10T16:05:42.194Z,53.44
2023-05-10T16:08:08.973Z,54.03
2023-05-10T16:10:35.643Z,55.23
2023-05-10T16:13:03.949Z,53.81
2023-05-10T16:15:30.616Z,56.24
2023-05-10T16:17:58.942Z,57.30
2023-05-10T16:20:25.994Z,56.41
2023-05-10T16:22:52.909Z,56.88
2023-05-10T16:25:19.874Z,56.75
2023-05-10T16:27:47.023Z,58.38
2023-05-10T16:30:14.292Z,58.21
2023-05-10T16:32:40.970Z,58.50
2023-05-10T16:35:10.550Z,59.71
2023-05-10T16:37:37.170Z,59.04
2023-05-10T16:40:04.554Z,60.08
2023-05-10T16:42:31.456Z,58.43
2023-05-10T16:44:58.376Z,58.28
2023-05-10T16:47:26.908Z,56.71
2023-05-10T16:49:54.074Z,59.62
2023-05-10T16:52:22.257Z,60.16
2023-05-10T16:55:09.170Z,59.74
2023-05-10T16:57:36.210Z,59.68
2023-05-10T17:00:03.230Z,60.41
2023-05-10T17:05:16.228Z,59.98
2023-05-10T17:07:44.354Z,62.11
2023-05-10T17:10:11.468Z,61.38
2023-05-10T17:12:38.284Z,61.01
2023-05-10T17:15:05.683Z,61.11
2023-05-10T17:17:32.377Z,61.63
2023-05-10T17:19:59.369Z,62.16
2023-05-10T17:22:26.070Z,62.98
2023-05-10T17:24:54.184Z,62.95
2023-05-10T17:27:21.236Z,63.31
2023-05-10T17:29:48.004Z,64.44
2023-05-10T17:32:14.869Z,66.03
2023-05-10T17:34:41.658Z,65.90
2023-05-10T17:37:09.434Z,66.24
2023-05-10T17:39:36.752Z,65.61
2023-05-10T17:42:06.006Z,65.84
2023-05-10T17:44:32.781Z,66.96
2023-05-10T17:47:00.179Z,67.64
2023-05-10T17:49:28.708Z,67.45
2023-05-10T17:51:56.744Z,67.66
2023-05-10T17:54:23.379Z,67.95
2023-05-10T17:56:50.148Z,68.05
2023-05-10T17:59:18.227Z,67.01
2023-05-10T18:01:45.329Z,67.46
2023-05-10T18:04:12.032Z,69.69
2023-05-10T18:06:39.386Z,69.21
2023-05-10T18:09:07.267Z,68.25
2023-05-10T18:11:34.717Z,68.67
2023-05-10T18:14:01.579Z,68.81
2023-05-10T18:16:29.831Z,68.20
2023-05-10T18:18:57.462Z,70.02
2023-05-10T18:21:24.828Z,69.28
2023-05-10T18:23:51.608Z,69.33
2023-05-10T18:26:19.307Z,69.24
2023-05-10T18:29:06.306Z,68.86
2023-05-10T18:31:34.606Z,69.78
2023-05-10T18:34:01.761Z,70.73
2023-05-10T18:39:14.604Z,71.89
2023-05-10T18:41:41.301Z,71.27
2023-05-10T18:44:29.219Z,70.20
2023-05-10T18:46:59.152Z,71.10
2023-05-10T18:49:26.724Z,70.91
2023-05-10T18:51:53.699Z,70.35
2023-05-10T18:54:20.679Z,71.13
2023-05-10T18:56:47.349Z,70.62
2023-05-10T18:59:14.611Z,69.87
2023-05-10T19:01:41.746Z,69.19
2023-05-10T19:04:10.954Z,69.15
2023-05-10T19:06:37.846Z,69.64
2023-05-10T19:09:26.451Z,70.41
2023-05-10T19:11:53.615Z,69.68
2023-05-10T19:14:20.285Z,69.79
2023-05-10T19:16:49.254Z,70.63
2023-05-10T19:19:18.987Z,71.15
2023-05-10T19:21:46.347Z,73.14
2023-05-10T19:24:12.981Z,74.37
2023-05-10T19:27:00.600Z,77.21
2023-05-10T19:29:27.600Z,80.04
2023-05-10T19:31:54.420Z,80.44
2023-05-10T19:34:22.972Z,77.67
2023-05-10T19:36:49.793Z,78.18
2023-05-10T19:39:16.696Z,78.10
2023-05-10T19:41:43.528Z,78.86
2023-05-10T19:44:10.458Z,78.19
2023-05-10T19:46:38.116Z,79.68
2023-05-10T19:49:05.396Z,79.15
2023-05-10T19:51:33.487Z,79.68
2023-05-10T19:54:00.607Z,80.69
2023-05-10T19:56:28.712Z,80.23
2023-05-10T19:58:55.729Z,80.10
2023-05-10T20:01:22.646Z,80.60
2023-05-10T20:03:49.507Z,80.75
2023-05-10T20:06:16.111Z,79.11
2023-05-10T20:08:44.441Z,78.83
2023-05-10T20:11:11.296Z,79.12
2023-05-10T20:13:38.583Z,79.12
2023-05-10T20:16:06.323Z,78.52
2023-05-10T20:18:33.579Z,79.84
2023-05-10T20:21:00.551Z,79.87
2023-05-10T20:23:27.528Z,81.12
2023-05-10T20:25:55.650Z,81.71
2023-05-10T20:28:23.405Z,81.50
2023-05-10T20:30:52.453Z,81.90
2023-05-10T20:33:21.033Z,79.97
2023-05-10T20:35:47.916Z,81.39
2023-05-10T20:38:14.766Z,79.50
2023-05-10T20:40:41.636Z,78.65
2023-05-10T20:43:09.924Z,78.82
2023-05-10T20:45:37.537Z,78.78
2023-05-10T20:48:05.438Z,81.74
2023-05-10T20:50:32.368Z,79.74
2023-05-10T20:53:00.584Z,79.58
2023-05-10T20:55:27.262Z,79.29
2023-05-10T20:57:53.952Z,79.15
2023-05-10T21:00:22.179Z,79.35
2023-05-10T21:02:48.937Z,79.22
2023-05-10T21:05:16.772Z,79.82
2023-05-10T21:07:43.506Z,79.99
2023-05-10T21:10:10.930Z,79.85
2023-05-10T21:12:37.545Z,79.32
2023-05-10T21:15:04.484Z,79.37
2023-05-10T21:17:32.545Z,79.30
2023-05-10T21:19:59.217Z,79.13
2023-05-10T21:22:26.509Z,78.72
2023-05-10T21:24:53.167Z,79.05
2023-05-10T21:27:19.944Z,79.32
2023-05-10T21:29:46.729Z,80.00
2023-05-10T21:32:14.918Z,79.69
2023-05-10T21:34:43.053Z,79.88
2023-05-10T21:37:09.737Z,79.91
2023-05-10T21:39:36.396Z,80.89
2023-05-10T21:42:03.826Z,83.22
2023-05-10T21:44:31.861Z,83.08
2023-05-10T21:46:58.494Z,84.83
2023-05-10T21:49:25.272Z,84.60
2023-05-10T21:51:53.313Z,84.60
2023-05-10T21:54:20.090Z,85.94
2023-05-10T21:56:47.310Z,86.25
2023-05-10T21:59:14.103Z,87.06
2023-05-10T22:01:41.219Z,86.04
2023-05-10T22:04:07.936Z,86.59
2023-05-10T22:06:34.556Z,86.17
2023-05-10T22:09:02.621Z,85.88
2023-05-10T22:11:29.250Z,84.50
2023-05-10T22:13:55.996Z,84.24
2023-05-10T22:16:22.691Z,85.65
2023-05-10T22:18:49.453Z,85.85
2023-05-10T22:21:16.185Z,84.66
2023-05-10T22:23:42.911Z,85.28
2023-05-10T22:26:11.686Z,86.13
2023-05-10T22:28:38.375Z,86.59
2023-05-10T22:31:09.165Z,87.07
2023-05-10T22:33:35.865Z,85.21
2023-05-10T22:36:02.417Z,85.36
2023-05-10T22:38:29.035Z,85.64
2023-05-10T22:40:55.732Z,85.96
2023-05-10T22:43:23.730Z,86.46
2023-05-10T22:45:50.433Z,86.77
2023-05-10T22:48:17.250Z,87.75
2023-05-10T22:50:43.912Z,88.10
2023-05-10T22:53:10.823Z,88.64
2023-05-10T22:55:37.491Z,88.54
2023-05-10T22:58:04.157Z,87.35
2023-05-10T23:00:32.516Z,86.42
2023-05-10T23:02:59.339Z,87.14
2023-05-10T23:05:25.958Z,87.12
2023-05-10T23:07:53.565Z,86.25
2023-05-10T23:10:20.268Z,86.70
2023-05-10T23:12:46.958Z,87.06
2023-05-10T23:15:13.627Z,86.99
2023-05-10T23:17:41.719Z,85.51
2023-05-10T23:20:08.872Z,86.34
2023-05-10T23:22:35.526Z,86.41
2023-05-10T23:25:02.539Z,86.55
2023-05-10T23:27:29.933Z,86.29
2023-05-10T23:29:56.787Z,86.38
2023-05-10T23:32:23.493Z,87.12
2023-05-10T23:34:51.519Z,85.67
2023-05-10T23:37:18.138Z,84.58
2023-05-10T23:39:44.877Z,83.51
2023-05-10T23:42:11.546Z,83.36
2023-05-10T23:44:38.241Z,82.88
2023-05-10T23:47:05.243Z,82.90
2023-05-10T23:49:31.890Z,82.39
2023-05-10T23:51:59.895Z,82.12
2023-05-10T23:54:26.711Z,81.92
2023-05-10T23:56:53.426Z,81.93
2023-05-10T23:59:20.336Z,81.77
